createdAt,value
2022-10-12T00:03:46.118Z,14.15
2022-10-12T00:07:49.100Z,11.55
2022-10-12T00:11:52.613Z,13.20
2022-10-12T00:15:55.819Z,15.25
2022-10-12T00:20:01.165Z,10.07
2022-10-12T00:24:04.842Z,13.35
2022-10-12T00:28:09.005Z,14.82
2022-10-12T00:32:12.575Z,9.55
2022-10-12T00:36:19.926Z,14.98
2022-10-12T00:40:23.294Z,11.98
2022-10-12T00:44:37.849Z,13.10
2022-10-12T00:48:42.912Z,11.43
2022-10-12T00:52:53.735Z,12.45
2022-10-12T00:56:59.257Z,15.25
2022-10-12T01:01:03.558Z,14.27
2022-10-12T01:05:07.787Z,19.50
2022-10-12T01:09:12.570Z,14.43
2022-10-12T01:13:15.968Z,16.27
2022-10-12T01:17:32.608Z,19.27
2022-10-12T01:21:41.792Z,21.15
2022-10-12T01:26:06.864Z,17.05
2022-10-12T01:30:15.570Z,15.25
2022-10-12T01:34:29.436Z,12.70
2022-10-12T01:38:47.864Z,12.43
2022-10-12T01:42:51.881Z,15.15
2022-10-12T01:46:59.399Z,16.02
2022-10-12T01:51:04.608Z,12.55
2022-10-12T01:55:21.380Z,14.25
2022-10-12T01:59:33.692Z,14.13
2022-10-12T02:03:45.851Z,17.23
2022-10-12T02:07:53.250Z,25.93
2022-10-12T02:12:02.493Z,18.23
2022-10-12T02:16:09.969Z,16.98
2022-10-12T02:24:25.634Z,16.75
2022-10-12T02:28:32.295Z,11.73
2022-10-12T02:32:39.761Z,13.98
2022-10-12T02:36:51.445Z,21.73
2022-10-12T02:41:00.387Z,14.30
2022-10-12T02:45:08.279Z,15.60
2022-10-12T02:49:13.456Z,12.43
2022-10-12T02:53:18.149Z,20.98
2022-10-12T02:57:23.218Z,19.55
2022-10-12T03:01:26.219Z,14.57
2022-10-12T03:05:29.738Z,15.88
2022-10-12T03:09:33.194Z,15.23
2022-10-12T03:13:37.719Z,13.43
2022-10-12T03:17:41.094Z,20.15
2022-10-12T03:21:44.542Z,17.42
2022-10-12T03:25:47.583Z,20.70
2022-10-12T03:29:52.587Z,18.08
2022-10-12T03:33:56.234Z,16.95
2022-10-12T03:37:59.232Z,16.70
2022-10-12T03:42:02.639Z,17.33
2022-10-12T03:46:07.772Z,19.23
2022-10-12T03:50:11.204Z,18.45
2022-10-12T03:54:14.865Z,17.90
2022-10-12T03:58:19.314Z,16.10
2022-10-12T04:02:24.377Z,20.42
2022-10-12T04:06:27.952Z,16.95
2022-10-12T04:10:31.045Z,16.55
2022-10-12T04:14:34.569Z,19.27
2022-10-12T04:18:39.549Z,18.17
2022-10-12T04:22:43.034Z,14.13
2022-10-12T04:26:46.447Z,23.63
2022-10-12T04:30:49.484Z,20.15
2022-10-12T04:34:54.632Z,18.77
2022-10-12T04:39:00.961Z,15.63
2022-10-12T04:43:04.874Z,19.83
2022-10-12T04:47:08.781Z,19.73
2022-10-12T04:51:13.221Z,24.63
2022-10-12T04:55:17.008Z,20.38
2022-10-12T04:59:20.475Z,24.00
2022-10-12T05:03:24.263Z,19.40
2022-10-12T05:07:29.222Z,17.85
2022-10-12T05:11:32.186Z,15.07
2022-10-12T05:15:35.694Z,15.00
2022-10-12T05:19:39.873Z,18.83
2022-10-12T05:23:44.879Z,17.20
2022-10-12T05:27:48.274Z,21.13
2022-10-12T05:31:51.218Z,17.10
2022-10-12T05:35:56.512Z,15.45
2022-10-12T05:40:01.854Z,14.77
2022-10-12T05:44:05.524Z,14.30
2022-10-12T05:48:08.491Z,15.25
2022-10-12T05:52:12.127Z,17.83
2022-10-12T05:56:16.983Z,21.45
2022-10-12T06:00:20.554Z,14.93
2022-10-12T06:04:24.394Z,12.82
2022-10-12T06:08:27.370Z,16.25
2022-10-12T06:12:32.501Z,18.35
2022-10-12T06:16:36.128Z,15.43
2022-10-12T06:20:39.893Z,15.68
2022-10-12T06:24:42.902Z,15.50
2022-10-12T06:28:47.422Z,17.77
2022-10-12T06:32:51.180Z,22.17
2022-10-12T06:36:57.124Z,16.58
2022-10-12T06:41:04.550Z,10.98
2022-10-12T06:45:10.347Z,18.88
2022-10-12T06:49:13.700Z,15.27
2022-10-12T06:53:17.319Z,15.55
2022-10-12T07:06:09.426Z,13.10
2022-10-12T07:10:13.474Z,15.30
2022-10-12T07:14:17.376Z,12.20
2022-10-12T07:18:21.871Z,16.50
2022-10-12T07:22:24.890Z,12.68
2022-10-12T07:26:28.431Z,10.63
2022-10-12T07:30:31.936Z,15.13
2022-10-12T07:34:36.824Z,11.68
2022-10-12T07:38:40.257Z,9.77
2022-10-12T07:43:05.483Z,8.48
2022-10-12T07:47:07.570Z,8.50
2022-10-12T07:51:12.338Z,13.38
2022-10-12T07:55:15.493Z,9.95
2022-10-12T07:59:18.953Z,13.90
2022-10-12T08:03:22.531Z,8.38
2022-10-12T08:07:27.080Z,9.90
2022-10-12T08:11:31.238Z,13.32
2022-10-12T08:15:34.577Z,14.48
2022-10-12T08:19:38.497Z,7.25
2022-10-12T08:23:44.671Z,8.80
2022-10-12T08:27:49.826Z,7.78
2022-10-12T08:31:55.149Z,7.30
2022-10-12T08:35:59.180Z,8.00
2022-10-12T08:40:04.246Z,7.20
2022-10-12T08:44:34.297Z,10.73
2022-10-12T08:48:52.122Z,10.00
2022-10-12T08:53:00.021Z,10.38
2022-10-12T08:57:05.262Z,9.10
2022-10-12T09:01:19.647Z,8.50
2022-10-12T09:05:30.845Z,6.65
2022-10-12T09:09:44.538Z,9.70
2022-10-12T09:13:59.004Z,12.02
2022-10-12T09:18:04.081Z,8.18
2022-10-12T09:22:16.267Z,8.48
2022-10-12T09:26:22.581Z,7.75
2022-10-12T09:30:27.529Z,10.43
2022-10-12T09:34:31.077Z,16.98
2022-10-12T09:38:34.210Z,5.50
2022-10-12T09:42:38.108Z,11.57
2022-10-12T09:46:47.033Z,9.35
2022-10-12T09:50:53.323Z,6.40
2022-10-12T09:55:02.619Z,6.78
2022-10-12T09:59:19.345Z,7.43
2022-10-12T10:03:30.832Z,7.88
2022-10-12T10:07:36.173Z,7.22
2022-10-12T10:11:40.183Z,9.88
2022-10-12T10:15:46.726Z,10.52
2022-10-12T10:19:54.617Z,12.07
2022-10-12T10:24:00.329Z,10.35
2022-10-12T10:28:23.050Z,5.55
2022-10-12T10:32:29.571Z,10.95
2022-10-12T10:36:39.342Z,7.70
2022-10-12T10:40:42.568Z,7.85
2022-10-12T10:44:51.092Z,9.80
2022-10-12T10:48:58.829Z,11.05
2022-10-12T10:53:06.798Z,8.63
2022-10-12T10:57:14.827Z,8.63
2022-10-12T11:01:24.356Z,9.52
2022-10-12T11:05:30.837Z,10.95
2022-10-12T11:09:43.086Z,6.97
2022-10-12T11:13:55.548Z,7.40
2022-10-12T11:18:05.512Z,8.20
2022-10-12T11:22:15.071Z,6.43
2022-10-12T11:26:26.112Z,7.82
2022-10-12T11:30:41.296Z,6.85
2022-10-12T11:34:51.871Z,11.27
2022-10-12T11:39:05.898Z,7.93
2022-10-12T11:43:21.254Z,9.27
2022-10-12T11:47:37.099Z,7.85
2022-10-12T11:51:40.567Z,9.77
2022-10-12T11:55:56.470Z,10.80
2022-10-12T12:00:05.210Z,8.15
2022-10-12T12:04:41.052Z,17.27
2022-10-12T12:09:19.560Z,13.50
2022-10-12T12:13:27.552Z,10.00
2022-10-12T12:17:33.797Z,10.25
2022-10-12T12:22:09.820Z,9.38
2022-10-12T12:26:18.585Z,12.00
2022-10-12T12:30:29.683Z,13.40
2022-10-12T12:34:34.582Z,11.82
2022-10-12T12:38:40.433Z,6.20
2022-10-12T12:42:43.743Z,8.38
2022-10-12T12:47:44.985Z,13.43
2022-10-12T12:51:45.704Z,11.85
2022-10-12T12:56:04.056Z,14.40
2022-10-12T13:00:22.469Z,13.13
2022-10-12T13:04:45.965Z,11.85
2022-10-12T13:09:07.491Z,9.77
2022-10-12T13:13:30.411Z,9.88
2022-10-12T13:17:55.948Z,11.75
2022-10-12T13:22:03.679Z,12.02
2022-10-12T13:26:11.666Z,12.60
2022-10-12T13:30:21.282Z,12.30
2022-10-12T13:34:29.133Z,11.15
2022-10-12T13:38:33.117Z,11.57
2022-10-12T13:42:37.578Z,14.70
2022-10-12T13:46:44.439Z,12.80
2022-10-12T13:50:56.684Z,13.07
2022-10-12T13:55:00.527Z,8.40
2022-10-12T13:59:10.583Z,11.45
2022-10-12T14:03:15.034Z,14.00
2022-10-12T14:07:23.190Z,13.32
2022-10-12T14:11:28.220Z,12.45
2022-10-12T14:15:37.031Z,12.45
2022-10-12T14:19:47.330Z,7.75
2022-10-12T14:23:53.022Z,10.50
2022-10-12T14:27:58.232Z,10.63
2022-10-12T14:32:05.595Z,9.32
2022-10-12T14:36:17.599Z,9.05
2022-10-12T14:40:36.744Z,8.83
2022-10-12T14:44:44.482Z,13.15
2022-10-12T14:48:49.095Z,8.63
2022-10-12T14:52:55.419Z,9.98
2022-10-12T14:57:02.822Z,11.23
2022-10-12T15:01:06.387Z,11.35
2022-10-12T15:05:13.856Z,7.30
2022-10-12T15:09:17.540Z,8.43
2022-10-12T15:13:20.948Z,9.77
2022-10-12T15:17:24.216Z,8.43
2022-10-12T15:21:29.158Z,14.23
2022-10-12T15:25:41.509Z,8.77
2022-10-12T15:29:46.150Z,10.57
2022-10-12T15:33:50.852Z,8.98
2022-10-12T15:37:56.847Z,14.00
2022-10-12T15:42:00.414Z,11.98
2022-10-12T15:46:03.996Z,7.80
2022-10-12T15:50:08.258Z,8.60
2022-10-12T15:54:15.101Z,8.98
2022-10-12T15:58:18.191Z,8.50
2022-10-12T16:02:24.029Z,13.15
2022-10-12T16:06:27.498Z,13.15
2022-10-12T16:10:34.425Z,9.02
2022-10-12T16:14:37.845Z,15.38
2022-10-12T16:18:40.794Z,15.48
2022-10-12T16:22:44.679Z,14.82
2022-10-12T16:26:50.134Z,13.00
2022-10-12T16:30:54.252Z,10.77
2022-10-12T16:34:57.349Z,8.43
2022-10-12T16:39:01.199Z,8.23
2022-10-12T16:43:06.118Z,9.68
2022-10-12T16:47:09.378Z,10.93
2022-10-12T16:51:14.789Z,10.68
2022-10-12T16:55:18.305Z,9.18
2022-10-12T16:59:23.325Z,10.57
2022-10-12T17:03:27.166Z,12.27
2022-10-12T17:07:30.701Z,7.60
2022-10-12T17:11:36.773Z,8.25
2022-10-12T17:15:43.254Z,13.95
2022-10-12T17:19:47.045Z,8.20
2022-10-12T17:23:50.535Z,9.43
2022-10-12T17:27:54.098Z,13.40
2022-10-12T17:31:59.576Z,8.38
2022-10-12T17:36:07.801Z,6.35
2022-10-12T17:40:12.017Z,18.35
2022-10-12T17:44:15.669Z,12.65
2022-10-12T17:48:20.780Z,11.40
2022-10-12T17:52:24.265Z,11.65
2022-10-12T17:56:27.453Z,9.88
2022-10-12T18:00:30.902Z,6.78
2022-10-12T18:04:35.893Z,10.38
2022-10-12T18:08:39.180Z,5.35
2022-10-12T18:12:42.719Z,6.30
2022-10-12T18:16:46.242Z,8.25
2022-10-12T18:20:51.467Z,11.40
2022-10-12T18:24:54.795Z,8.88
2022-10-12T18:29:01.886Z,14.80
2022-10-12T18:33:06.489Z,10.80
2022-10-12T18:37:10.961Z,8.55
2022-10-12T18:41:17.306Z,7.80
2022-10-12T18:45:20.827Z,10.38
2022-10-12T18:49:23.940Z,8.82
2022-10-12T18:53:28.840Z,10.43
2022-10-12T18:57:36.418Z,8.38
2022-10-12T19:01:42.946Z,12.98
2022-10-12T19:05:46.500Z,9.65
2022-10-12T19:09:51.275Z,8.18
2022-10-12T19:13:55.835Z,11.25
2022-10-12T19:17:59.625Z,10.68
2022-10-12T19:22:03.258Z,11.15
2022-10-12T19:26:10.346Z,15.93
2022-10-12T19:30:14.478Z,8.85
2022-10-12T19:34:20.853Z,13.00
2022-10-12T19:38:24.136Z,10.15
2022-10-12T19:42:29.119Z,9.05
2022-10-12T19:46:32.292Z,9.10
2022-10-12T19:50:36.302Z,9.25
2022-10-12T19:54:39.824Z,10.88
2022-10-12T19:58:47.519Z,7.95
2022-10-12T20:02:51.272Z,15.10
2022-10-12T20:06:55.112Z,9.35
2022-10-12T20:10:58.190Z,11.43
2022-10-12T20:15:04.238Z,8.82
2022-10-12T20:19:08.276Z,13.98
2022-10-12T20:23:11.553Z,12.77
2022-10-12T20:27:15.238Z,12.35
2022-10-12T20:31:23.314Z,13.20
2022-10-12T20:35:26.794Z,10.68
2022-10-12T20:39:29.861Z,22.23
2022-10-12T20:43:33.812Z,10.80
2022-10-12T20:47:41.050Z,10.63
2022-10-12T20:51:46.050Z,11.32
2022-10-12T20:55:49.232Z,13.00
2022-10-12T20:59:52.370Z,13.40
2022-10-12T21:03:57.996Z,10.27
2022-10-12T21:08:01.465Z,9.18
2022-10-12T21:12:05.211Z,10.07
2022-10-12T21:16:08.927Z,8.98
2022-10-12T21:20:14.447Z,9.80
2022-10-12T21:24:18.228Z,10.55
2022-10-12T21:28:22.347Z,11.05
2022-10-12T21:32:25.979Z,15.25
2022-10-12T21:36:31.893Z,9.00
2022-10-12T21:40:35.597Z,11.45
2022-10-12T21:44:39.187Z,11.23
2022-10-12T21:48:42.924Z,8.48
2022-10-12T21:52:50.034Z,11.60
2022-10-12T21:56:53.372Z,11.80
2022-10-12T22:01:05.706Z,9.30
2022-10-12T22:05:08.956Z,13.13
2022-10-12T22:09:17.260Z,13.18
2022-10-12T22:13:20.392Z,16.08
2022-10-12T22:17:25.414Z,13.73
2022-10-12T22:21:29.481Z,14.23
2022-10-12T22:25:34.338Z,9.70
2022-10-12T22:29:37.425Z,19.73
2022-10-12T22:33:41.327Z,15.05
2022-10-12T22:37:44.431Z,11.38
2022-10-12T22:41:49.244Z,12.98
2022-10-12T22:45:52.250Z,11.32
2022-10-12T22:49:55.749Z,12.25
2022-10-12T22:54:00.111Z,11.07
2022-10-12T22:58:05.162Z,16.15
2022-10-12T23:02:08.124Z,12.60
2022-10-12T23:06:12.772Z,18.58
2022-10-12T23:10:17.982Z,12.70
2022-10-12T23:14:22.884Z,12.27
2022-10-12T23:18:25.849Z,16.52
2022-10-12T23:22:29.573Z,14.48
2022-10-12T23:26:33.245Z,12.52
2022-10-12T23:30:39.089Z,21.58
2022-10-12T23:34:42.755Z,15.40
2022-10-12T23:38:46.977Z,14.50
2022-10-12T23:42:49.939Z,12.70
2022-10-12T23:46:54.927Z,13.50
2022-10-12T23:50:58.106Z,15.05
2022-10-12T23:55:01.619Z,11.73
2022-10-12T23:59:04.681Z,11.95
